Stations météo

réclame
Mon MeteoGroup
Buzenol, Belgique (6484): Température de l'air & dewpoint: 20.05.2018 23:00:00 - 26.05.2018 23:00:00 (CEST)Buzenol, Belgique (6484): Vitesse du vent & gusts: 20.05.2018 23:00:00 - 26.05.2018 23:00:00 (CEST)Buzenol, Belgique (6484): Direction du vent: 20.05.2018 23:00:00 - 26.05.2018 23:00:00 (CEST)Buzenol, Belgique (6484): reduced air pressure: 20.05.2018 23:00:00 - 26.05.2018 23:00:00 (CEST)Buzenol, Belgique (6484): Ensoleillement: 20.05.2018 23:00:00 - 26.05.2018 23:00:00 (CEST)Buzenol, Belgique (6484): Quantités de précipitations: 20.05.2018 23:00:00 - 26.05.2018 23:00:00 (CEST)
Date & Time tt [°C] td [°C] ff [km/h] ff [knt] fx [km/h] fx [knt] dd ppp [hPa] sd [min] rr [mm]
26.05.2018 23:00:00 18,8 15,1 5 3 11 6 E 1018,6 0 0,0
26.05.2018 22:00:00 21,6 14,4 7 4 14 8 ESE 1017,7 0 0,0
26.05.2018 21:00:00 22,7 14,6 9 5 14 8 ESE 1017,0 0 0,0
26.05.2018 20:00:00 24,1 14,8 7 4 17 9 E 1017,2 34 0,0
26.05.2018 19:00:00 25,4 14,5 8 5 22 12 SSW 1017,6 50 0,0
26.05.2018 18:00:00 26,1 14,2 7 4 19 10 SSW 1017,7 60 0,0
26.05.2018 17:00:00 26,6 12,6 15 8 24 13 S 1017,7 60 0,0
26.05.2018 16:00:00 26,5 16,3 13 7 27 15 SSW 1017,8 59 0,0
26.05.2018 15:00:00 26,2 16,2 12 6 28 15 SSW 1018,1 60 0,0
26.05.2018 14:00:00 25,8 16,6 16 8 24 13 S 1018,6 32 0,0
26.05.2018 13:00:00 24,2 15,4 16 8 30 16 SSE 1018,6 47 0,0
26.05.2018 12:00:00 23,8 15,9 18 10 29 15 SE 1018,2 60 0,0
26.05.2018 11:00:00 22,3 16,2 16 9 27 14 SE 1018,2 60 0,0
26.05.2018 10:00:00 20,9 15,7 13 7 25 14 ESE 1018,2 60 0,0
26.05.2018 09:00:00 19,7 15,7 11 6 18 10 E 1018,2 60 0,0
26.05.2018 08:00:00 17,0 14,6 8 4 16 9 E 1018,3 54 0,0
26.05.2018 07:00:00 15,3 13,4 10 5 19 11 ENE 1018,4 0 0,0
26.05.2018 06:00:00 14,7 13,6 14 8 19 10 ENE 1018,0 0 0,1
26.05.2018 05:00:00 12,7 11,7 6 4 14 8 NNE 1018,3 0 0,0
26.05.2018 04:00:00 12,8 12,3 9 5 16 9 NE 1018,3 0 0,0
26.05.2018 03:00:00 12,5 11,7 7 4 13 7 NNE 1018,5 0 0,0
26.05.2018 02:00:00 14,0 12,9 7 4 11 6 ENE 1018,4 0 0,0
26.05.2018 01:00:00 13,3 12,4 6 3 10 5 NE 1018,6 0 0,0
26.05.2018 00:00:00 13,3 12,5 8 4 10 5 NNE 1018,4 0 0,0
25.05.2018 23:00:00 14,6 13,7 9 5 10 6 NNE 1018,1 0 0,0
25.05.2018 22:00:00 17,0 14,6 5 3 10 5 ENE 1017,5 0 0,0
25.05.2018 21:00:00 18,4 14,4 4 2 9 5 NE 1017,2 16 0,0
25.05.2018 20:00:00 22,6 13,5 7 4 11 6 ESE 1016,5 60 0,0
25.05.2018 19:00:00 23,2 12,4 8 4 13 7 SE 1016,4 60 0,0
25.05.2018 18:00:00 23,8 11,5 4 2 14 8 SE 1016,6 60 0,0
25.05.2018 17:00:00 23,9 12,2 8 5 18 10 S 1017,1 60 0,0
25.05.2018 16:00:00 23,7 13,6 11 6 21 11 SW 1017,2 50 0,0
25.05.2018 15:00:00 22,5 13,3 8 4 19 10 S 1017,3 32 0,0
25.05.2018 14:00:00 22,9 13,4 11 6 15 8 S 1017,4 60 0,0
25.05.2018 13:00:00 21,9 15,2 10 5 22 12 SSW 1017,7 60 0,0
25.05.2018 12:00:00 21,4 15,5 8 4 14 7 S 1017,6 60 0,0
25.05.2018 11:00:00 20,2 16,3 7 4 11 6 SSE 1018,0 60 0,0
25.05.2018 10:00:00 18,0 15,7 4 2 9 5 S 1018,3 60 0,0
25.05.2018 09:00:00 15,8 15,0 6 3 8 4 E 1018,5 60 0,0
25.05.2018 08:00:00 13,1 12,9 4 2 7 4 NNE 1018,3 60 0,0
25.05.2018 07:00:00 10,3 10,1 5 3 9 5 N 1018,5 19 0,0
25.05.2018 06:00:00 9,5 9,3 8 4 9 5 NNE 1018,3 0 0,0
25.05.2018 05:00:00 9,8 9,5 5 3 9 5 NNE 1018,2 0 0,1
25.05.2018 04:00:00 10,3 10,0 6 3 7 4 NNE 1018,0 0 0,0
25.05.2018 03:00:00 11,1 10,7 6 4 8 4 NNE 1017,8 0 0,0
25.05.2018 02:00:00 11,9 11,5 7 4 8 4 NNE 1017,9 0 0,0
25.05.2018 01:00:00 12,6 12,2 4 2 6 3 NNE 1018,1 0 0,1
25.05.2018 00:00:00 13,9 13,4 4 2 6 3 ESE 1017,8 0 0,0
24.05.2018 23:00:00 15,2 14,4 4 2 7 4 SE 1017,7 0 0,0
24.05.2018 22:00:00 16,3 15,3 4 2 6 3 E 1017,1 0 0,0
24.05.2018 21:00:00 18,4 16,0 0 0 6 3 N 1016,4 15 0,0
24.05.2018 20:00:00 19,8 16,1 4 2 8 5 SE 1015,9 19 0,0
24.05.2018 19:00:00 20,5 15,2 7 4 13 7 NW 1015,6 43 0,0
24.05.2018 18:00:00 19,3 16,1 8 4 14 8 W 1016,0 45 0,0
24.05.2018 17:00:00 19,4 17,2 7 4 9 5 WSW 1015,9 52 0,0
24.05.2018 16:00:00 17,5 16,3 4 2 12 7 SW 1016,7 0 1,7
24.05.2018 15:00:00 18,2 14,4 13 7 29 16 SW 1017,0 2 3,1
24.05.2018 14:00:00 20,3 14,6 4 2 10 5 SE 1016,8 18 0,0
24.05.2018 13:00:00 19,6 15,7 5 3 11 6 SE 1017,4 33 0,0
24.05.2018 12:00:00 17,5 15,0 5 3 15 8 SSW 1018,0 3 0,0
24.05.2018 11:00:00 17,4 14,9 8 4 14 8 SSE 1018,1 36 0,0
24.05.2018 10:00:00 15,5 14,5 5 3 8 5 ESE 1018,3 0 0,0
24.05.2018 09:00:00 14,7 14,0 4 2 9 5 ESE 1018,4 0 0,0
24.05.2018 08:00:00 14,1 13,6 7 4 9 5 E 1018,3 0 0,0
24.05.2018 07:00:00 13,0 12,7 5 3 7 4 NE 1018,5 0 0,0
24.05.2018 06:00:00 12,6 12,2 5 3 7 4 N 1018,4 0 0,0
24.05.2018 05:00:00 13,4 12,6 4 2 10 5 NNE 1018,6 0 0,0
24.05.2018 04:00:00 13,7 12,8 7 4 11 6 E 1018,6 0 0,0
24.05.2018 03:00:00 14,1 13,2 7 4 13 7 ENE 1018,4 0 0,0
24.05.2018 02:00:00 14,1 13,3 7 4 12 7 ENE 1018,6 0 0,2
24.05.2018 01:00:00 14,2 13,4 9 5 16 9 NE 1018,8 0 2,7
24.05.2018 00:00:00 14,3 13,6 10 5 18 10 ENE 1019,3 0 0,5
23.05.2018 23:00:00 14,2 13,5 8 4 13 7 NNE 1019,6 0 1,1
23.05.2018 22:00:00 14,6 13,7 10 5 32 17 E 1019,5 0 9,1
23.05.2018 21:00:00 15,7 15,1 4 2 14 8 N 1018,5 - -
23.05.2018 20:00:00 15,7 14,8 11 6 25 13 NNW 1018,1 0 3,1
23.05.2018 19:00:00 17,6 14,8 12 6 17 9 N 1017,4 0 0,0
23.05.2018 18:00:00 20,4 13,0 8 4 23 13 NE 1017,0 6 0,0
23.05.2018 17:00:00 21,3 13,8 8 5 26 14 SE 1016,4 30 0,0
23.05.2018 16:00:00 20,5 13,1 17 9 26 14 SE 1016,7 34 0,0
23.05.2018 15:00:00 19,5 14,3 10 5 15 8 E 1017,3 0 0,0
23.05.2018 14:00:00 19,0 13,6 11 6 18 10 ESE 1017,7 0 0,0
23.05.2018 13:00:00 19,9 14,7 9 5 18 10 E 1017,6 40 0,0
23.05.2018 12:00:00 19,9 15,0 6 4 14 7 SSE 1017,7 60 0,0
23.05.2018 11:00:00 18,0 14,8 9 5 15 8 SSE 1017,7 50 0,0
23.05.2018 10:00:00 16,0 15,0 7 4 11 6 E 1017,7 24 0,0
23.05.2018 09:00:00 14,3 14,1 4 2 7 4 NE 1017,5 8 0,0
23.05.2018 08:00:00 12,5 12,3 4 2 9 5 N 1017,4 0 0,0
23.05.2018 07:00:00 11,4 11,2 6 4 9 5 N 1016,9 0 0,0
23.05.2018 06:00:00 11,1 10,8 7 4 12 7 N 1016,6 0 0,0
23.05.2018 05:00:00 10,8 10,4 9 5 12 6 NNE 1016,3 0 0,1
23.05.2018 04:00:00 11,9 11,5 6 3 13 7 N 1016,1 0 0,0
23.05.2018 03:00:00 12,4 11,9 6 4 11 6 N 1015,4 0 0,5
23.05.2018 02:00:00 12,7 11,9 4 2 11 6 NE 1015,4 0 0,0
23.05.2018 01:00:00 12,5 11,8 8 5 16 9 ENE 1015,6 0 0,0
23.05.2018 00:00:00 12,9 12,1 11 6 16 9 N 1015,3 0 1,2
22.05.2018 23:00:00 13,1 11,6 9 5 26 14 NNW 1015,5 0 0,0
22.05.2018 22:00:00 13,7 11,1 16 9 38 21 N 1014,8 0 0,0
22.05.2018 21:00:00 16,0 14,2 6 4 14 7 NNE 1013,5 0 0,0
22.05.2018 20:00:00 16,9 14,5 7 4 24 13 ENE 1013,3 28 0,0
22.05.2018 19:00:00 16,5 12,5 17 9 34 19 E 1012,9 6 2,1
22.05.2018 18:00:00 19,4 11,7 9 5 21 12 NE 1012,2 8 0,0
22.05.2018 17:00:00 21,3 12,2 8 5 24 13 WNW 1011,6 49 0,0
22.05.2018 16:00:00 21,5 10,6 4 2 20 11 NW 1011,8 43 0,0
22.05.2018 15:00:00 21,2 11,0 8 4 19 11 NW 1012,1 53 0,0
22.05.2018 14:00:00 21,1 12,7 14 8 21 11 WSW 1012,0 19 0,0
22.05.2018 13:00:00 - - - - - - - - - -
22.05.2018 12:00:00 - - - - - - - - - -
22.05.2018 11:00:00 - - - - - - - - - -
22.05.2018 10:00:00 - - - - - - - - - -
22.05.2018 09:00:00 - - - - - - - - - -
22.05.2018 08:00:00 - - - - - - - - - -
22.05.2018 07:00:00 - - - - - - - - - -
22.05.2018 06:00:00 - - - - - - - - - -
22.05.2018 05:00:00 - - - - - - - - - -
22.05.2018 04:00:00 - - - - - - - - - -
22.05.2018 03:00:00 - - - - - - - - - -
22.05.2018 02:00:00 - - - - - - - - - -
22.05.2018 01:00:00 - - - - - - - - - -
22.05.2018 00:00:00 - - - - - - - - - -
21.05.2018 23:00:00 - - - - - - - - - -
21.05.2018 22:00:00 - - - - - - - - - -
21.05.2018 21:00:00 - - - - - - - - - -
21.05.2018 20:00:00 20,7 13,2 7 4 17 9 SW 1010,9 40 0,0
21.05.2018 19:00:00 20,4 14,2 4 2 16 8 WSW 1010,9 23 0,0
21.05.2018 18:00:00 21,4 11,7 8 4 23 13 S 1011,2 44 0,0
21.05.2018 17:00:00 21,8 11,5 13 7 23 12 SSE 1011,5 52 0,0
21.05.2018 16:00:00 21,4 11,7 13 7 25 14 S 1012,0 35 0,0
21.05.2018 15:00:00 20,9 12,0 10 6 28 15 S 1012,3 24 0,0
21.05.2018 14:00:00 20,2 12,8 11 6 23 12 SE 1012,6 38 0,0
21.05.2018 13:00:00 19,6 12,5 12 6 23 12 SSE 1013,1 60 0,0
21.05.2018 12:00:00 18,2 12,0 10 5 26 14 ESE 1013,5 60 0,0
21.05.2018 11:00:00 17,2 11,0 13 7 22 12 SE 1014,0 60 0,0
21.05.2018 10:00:00 15,9 11,0 11 6 21 12 ESE 1014,3 60 0,0
21.05.2018 09:00:00 14,1 10,3 10 5 18 10 E 1014,8 60 0,0
21.05.2018 08:00:00 12,4 10,0 7 4 21 11 E 1015,1 60 0,0
21.05.2018 07:00:00 11,3 9,4 11 6 24 13 ENE 1015,2 32 0,1
21.05.2018 06:00:00 11,0 9,5 13 7 20 11 ENE 1015,3 0 0,0
21.05.2018 05:00:00 10,9 9,8 8 4 17 9 ENE 1015,7 0 0,0
21.05.2018 04:00:00 11,5 10,2 11 6 24 13 ENE 1016,0 0 0,0
21.05.2018 03:00:00 12,0 10,6 16 9 29 16 NNE 1016,7 0 2,1
21.05.2018 02:00:00 12,0 10,5 11 6 35 19 NE 1017,3 0 2,9
21.05.2018 01:00:00 12,2 10,4 26 14 44 24 E 1017,9 0 1,8
21.05.2018 00:00:00 12,9 10,0 19 10 34 18 E 1018,2 0 0,1
20.05.2018 23:00:00 13,4 9,5 14 8 27 15 ENE 1017,9 0 0,0

tt = Température de l'air
td = dewpoint
ff = Vitesse du vent
fx = gusts
dd = Direction du vent
ppp = reduced air pressure
sd = Ensoleillement
rr = Quantités de précipitations

stations d'obs. à proximité